Aérodrome :
LOGIN :

S'inscrire | Disclaimer

   EN    FR    IT 

 










Légende :    VFR   VFR Marginal   IFR   IFR Intensif   IFR Très Intensif
Visi : 
Plafond : 
>= 8 km
>= 3000ft
5 à 8 km
1000 à 3000 ft
1500m à 5 km
500 à 1000 ft
800 à 1500m
200 à 500 ft
< 800m
< 200 ft
Symboles :   Orages  Brouillard  Fortes neiges  Fortes précipitations  Vent > 20 kt
SIGMETs :   Divers  Orages  Givrage  Turbulence  Onde Orograph.  Cendres Volcan.






- Altitude de l'aérodrome : 1090 ft
- Code IATA : CFE


LFLC - Clermont-Ferrand Auvergne

DERNIER METAR :
  • 271400Z AUTO 27024G34KT 9999 FEW006 SCT046 15/08 Q1002 TEMPO 27030G55KT

METARs EXPIRÉS :
  • 271330Z AUTO 26028KT 9999 FEW019 14/08 Q1001 TEMPO 27030G55KT
  • 271300Z AUTO 26031G45KT CAVOK 15/07 Q1001 TEMPO 27030G55KT
  • 271230Z AUTO 25024G41KT 9999 FEW028 SCT170 BKN190 14/06 Q1001 TEMPO 27030G55KT
  • 271200Z AUTO 24010KT 180V300 9999 SCT041 BKN052 BKN200 14/06 Q1002 TEMPO 27030G55KT
  • 271130Z AUTO 18015KT 150V210 9999 BKN040 BKN048 BKN054 11/04 Q1003
  • 271100Z AUTO 18018KT 150V210 9999 BKN041/// OVC058/// ///TCU 10/03 Q1003 TEMPO 27030G55KT BECMG BKN055

TAF TAF LFLC
Valide du 27 à 09h jusqu'au 28 à 09h UTC


270800Z 2709/2809 18015G30KT 9999 BKN055
BECMG 2710/2712 26020G40KT
PROB40
TEMPO 2712/2716 27030G55KT
BECMG 2713/2715 BKN030
BECMG 2716/2718 33010KT
BECMG 2723/2801 18004KT
ATIS : +33 4 73 62 74 38



MET'MAP, la Météo Aéronautique d'un coup d'oeil ! - Copyright ORBIFLY Décembre 2007 - Disclaimer

ORBIFLY MET'MAP TEAM :

Programmation & Développement : Alexandra Zaïnal
Sur une idée originale de : Baudouin d'Aumeries
Assistance à la programmation : Marc-Olivier Méhu
Soutien technique & logistique : Manuel Goepfert

Contact : metmap@orbifly.com




SOURCES & CREDITS :

   NOAA